sensor_id;sensor_type;location;lat;lon;timestamp;P1;durP1;ratioP1;P2;durP2;ratioP2
81150;SDS011;70629;-26.026;27.976;2024-03-22T00:00:13;4.22;;;1.85;;
81150;SDS011;70629;-26.026;27.976;2024-03-22T00:01:29;4.63;;;1.70;;
81150;SDS011;70629;-26.026;27.976;2024-03-22T00:02:07;4.65;;;1.90;;
81150;SDS011;70629;-26.026;27.976;2024-03-22T00:02:49;5.13;;;1.88;;
81150;SDS011;70629;-26.026;27.976;2024-03-22T00:03:27;4.22;;;1.73;;
81150;SDS011;70629;-26.026;27.976;2024-03-22T00:04:06;3.53;;;1.67;;
81150;SDS011;70629;-26.026;27.976;2024-03-22T00:04:45;4.80;;;1.90;;
81150;SDS011;70629;-26.026;27.976;2024-03-22T00:05:23;3.85;;;1.70;;
81150;SDS011;70629;-26.026;27.976;2024-03-22T00:06:01;4.38;;;1.73;;
81150;SDS011;70629;-26.026;27.976;2024-03-22T00:06:43;4.65;;;2.00;;
81150;SDS011;70629;-26.026;27.976;2024-03-22T00:07:22;4.65;;;1.75;;
81150;SDS011;70629;-26.026;27.976;2024-03-22T00:08:00;4.38;;;1.85;;
81150;SDS011;70629;-26.026;27.976;2024-03-22T00:09:17;3.90;;;1.58;;
81150;SDS011;70629;-26.026;27.976;2024-03-22T00:09:56;3.17;;;1.48;;
81150;SDS011;70629;-26.026;27.976;2024-03-22T00:11:12;3.80;;;1.63;;
81150;SDS011;70629;-26.026;27.976;2024-03-22T00:11:50;4.20;;;2.08;;
81150;SDS011;70629;-26.026;27.976;2024-03-22T00:12:28;4.60;;;1.70;;
81150;SDS011;70629;-26.026;27.976;2024-03-22T00:13:06;3.38;;;1.73;;
81150;SDS011;70629;-26.026;27.976;2024-03-22T00:13:44;3.40;;;1.60;;
81150;SDS011;70629;-26.026;27.976;2024-03-22T00:14:22;4.22;;;1.83;;
81150;SDS011;70629;-26.026;27.976;2024-03-22T00:15:01;3.00;;;1.42;;
81150;SDS011;70629;-26.026;27.976;2024-03-22T00:15:40;3.22;;;1.75;;
81150;SDS011;70629;-26.026;27.976;2024-03-22T00:16:21;4.10;;;2.00;;
81150;SDS011;70629;-26.026;27.976;2024-03-22T00:16:59;3.95;;;1.95;;
81150;SDS011;70629;-26.026;27.976;2024-03-22T00:17:38;3.20;;;1.90;;
81150;SDS011;70629;-26.026;27.976;2024-03-22T00:18:16;3.33;;;1.70;;
81150;SDS011;70629;-26.026;27.976;2024-03-22T00:18:54;4.53;;;2.15;;
81150;SDS011;70629;-26.026;27.976;2024-03-22T00:20:12;3.35;;;2.13;;
81150;SDS011;70629;-26.026;27.976;2024-03-22T00:20:50;3.17;;;1.90;;
81150;SDS011;70629;-26.026;27.976;2024-03-22T00:21:28;3.90;;;2.20;;
81150;SDS011;70629;-26.026;27.976;2024-03-22T00:22:07;3.97;;;2.13;;
81150;SDS011;70629;-26.026;27.976;2024-03-22T00:22:46;3.50;;;2.05;;
81150;SDS011;70629;-26.026;27.976;2024-03-22T00:23:24;4.88;;;2.17;;
81150;SDS011;70629;-26.026;27.976;2024-03-22T00:24:03;5.07;;;2.30;;
81150;SDS011;70629;-26.026;27.976;2024-03-22T00:24:41;3.60;;;2.08;;
81150;SDS011;70629;-26.026;27.976;2024-03-22T00:25:19;4.80;;;2.42;;
81150;SDS011;70629;-26.026;27.976;2024-03-22T00:25:58;4.55;;;2.00;;
81150;SDS011;70629;-26.026;27.976;2024-03-22T00:26:36;4.05;;;2.40;;
81150;SDS011;70629;-26.026;27.976;2024-03-22T00:27:14;4.07;;;2.10;;
81150;SDS011;70629;-26.026;27.976;2024-03-22T00:27:52;3.88;;;2.20;;
81150;SDS011;70629;-26.026;27.976;2024-03-22T00:28:32;5.00;;;2.55;;
81150;SDS011;70629;-26.026;27.976;2024-03-22T00:29:10;4.07;;;2.28;;
81150;SDS011;70629;-26.026;27.976;2024-03-22T00:29:48;4.68;;;2.85;;
81150;SDS011;70629;-26.026;27.976;2024-03-22T00:30:26;4.07;;;2.70;;
81150;SDS011;70629;-26.026;27.976;2024-03-22T00:31:05;4.72;;;2.50;;
81150;SDS011;70629;-26.026;27.976;2024-03-22T00:31:43;4.40;;;2.28;;
81150;SDS011;70629;-26.026;27.976;2024-03-22T00:32:22;4.80;;;3.00;;
81150;SDS011;70629;-26.026;27.976;2024-03-22T00:33:00;4.47;;;2.55;;
81150;SDS011;70629;-26.026;27.976;2024-03-22T00:33:38;3.45;;;2.22;;
81150;SDS011;70629;-26.026;27.976;2024-03-22T00:34:16;3.72;;;2.05;;
81150;SDS011;70629;-26.026;27.976;2024-03-22T00:34:54;5.72;;;2.17;;
81150;SDS011;70629;-26.026;27.976;2024-03-22T00:35:33;4.72;;;2.75;;
81150;SDS011;70629;-26.026;27.976;2024-03-22T00:36:11;3.97;;;2.65;;
81150;SDS011;70629;-26.026;27.976;2024-03-22T00:36:49;3.60;;;2.20;;
81150;SDS011;70629;-26.026;27.976;2024-03-22T00:37:28;3.78;;;2.65;;
81150;SDS011;70629;-26.026;27.976;2024-03-22T00:38:06;4.35;;;2.47;;
81150;SDS011;70629;-26.026;27.976;2024-03-22T00:38:45;4.72;;;2.78;;
81150;SDS011;70629;-26.026;27.976;2024-03-22T00:39:24;4.32;;;2.58;;
81150;SDS011;70629;-26.026;27.976;2024-03-22T00:40:02;4.82;;;2.85;;
81150;SDS011;70629;-26.026;27.976;2024-03-22T00:40:41;4.35;;;2.60;;
81150;SDS011;70629;-26.026;27.976;2024-03-22T00:41:19;3.95;;;2.58;;
81150;SDS011;70629;-26.026;27.976;2024-03-22T00:41:58;4.78;;;2.72;;
81150;SDS011;70629;-26.026;27.976;2024-03-22T00:42:36;3.90;;;2.22;;
81150;SDS011;70629;-26.026;27.976;2024-03-22T00:43:14;4.45;;;2.95;;
81150;SDS011;70629;-26.026;27.976;2024-03-22T00:43:52;4.30;;;3.10;;
81150;SDS011;70629;-26.026;27.976;2024-03-22T00:44:30;4.07;;;2.78;;
81150;SDS011;70629;-26.026;27.976;2024-03-22T00:45:08;4.95;;;2.92;;
81150;SDS011;70629;-26.026;27.976;2024-03-22T00:45:47;5.38;;;2.90;;
81150;SDS011;70629;-26.026;27.976;2024-03-22T00:46:25;5.50;;;3.20;;
81150;SDS011;70629;-26.026;27.976;2024-03-22T00:47:03;4.10;;;2.83;;
81150;SDS011;70629;-26.026;27.976;2024-03-22T00:47:42;7.05;;;3.08;;
81150;SDS011;70629;-26.026;27.976;2024-03-22T00:48:21;4.72;;;2.78;;
81150;SDS011;70629;-26.026;27.976;2024-03-22T00:48:59;5.82;;;2.97;;
81150;SDS011;70629;-26.026;27.976;2024-03-22T00:49:37;3.95;;;2.40;;
81150;SDS011;70629;-26.026;27.976;2024-03-22T00:50:15;4.78;;;2.80;;
81150;SDS011;70629;-26.026;27.976;2024-03-22T00:50:54;3.75;;;2.50;;
81150;SDS011;70629;-26.026;27.976;2024-03-22T00:51:32;5.20;;;2.67;;
81150;SDS011;70629;-26.026;27.976;2024-03-22T00:52:10;3.75;;;2.60;;
81150;SDS011;70629;-26.026;27.976;2024-03-22T00:52:50;4.30;;;2.70;;
81150;SDS011;70629;-26.026;27.976;2024-03-22T00:53:29;4.93;;;2.55;;
81150;SDS011;70629;-26.026;27.976;2024-03-22T00:54:07;4.85;;;2.88;;
81150;SDS011;70629;-26.026;27.976;2024-03-22T00:54:46;4.82;;;2.95;;
81150;SDS011;70629;-26.026;27.976;2024-03-22T00:55:24;4.50;;;2.83;;
81150;SDS011;70629;-26.026;27.976;2024-03-22T00:56:02;4.22;;;2.50;;
81150;SDS011;70629;-26.026;27.976;2024-03-22T00:56:41;4.47;;;2.80;;
81150;SDS011;70629;-26.026;27.976;2024-03-22T00:57:19;5.75;;;2.85;;
81150;SDS011;70629;-26.026;27.976;2024-03-22T00:57:57;4.30;;;2.50;;
81150;SDS011;70629;-26.026;27.976;2024-03-22T00:58:35;5.50;;;2.60;;
81150;SDS011;70629;-26.026;27.976;2024-03-22T00:59:14;4.40;;;2.92;;
81150;SDS011;70629;-26.026;27.976;2024-03-22T01:00:30;4.72;;;2.88;;
81150;SDS011;70629;-26.026;27.976;2024-03-22T01:01:08;4.63;;;2.83;;
81150;SDS011;70629;-26.026;27.976;2024-03-22T01:01:46;5.47;;;2.88;;
81150;SDS011;70629;-26.026;27.976;2024-03-22T01:02:24;6.32;;;3.45;;
81150;SDS011;70629;-26.026;27.976;2024-03-22T01:03:03;4.57;;;3.20;;
81150;SDS011;70629;-26.026;27.976;2024-03-22T01:03:41;5.22;;;3.05;;
81150;SDS011;70629;-26.026;27.976;2024-03-22T01:04:19;5.13;;;3.08;;
81150;SDS011;70629;-26.026;27.976;2024-03-22T01:04:57;4.28;;;2.83;;
81150;SDS011;70629;-26.026;27.976;2024-03-22T01:05:35;5.03;;;2.67;;
81150;SDS011;70629;-26.026;27.976;2024-03-22T01:06:14;4.57;;;2.47;;
81150;SDS011;70629;-26.026;27.976;2024-03-22T01:06:52;5.40;;;3.55;;
81150;SDS011;70629;-26.026;27.976;2024-03-22T01:07:30;3.70;;;2.60;;
81150;SDS011;70629;-26.026;27.976;2024-03-22T01:08:08;3.67;;;2.30;;
81150;SDS011;70629;-26.026;27.976;2024-03-22T01:08:47;4.10;;;2.50;;
81150;SDS011;70629;-26.026;27.976;2024-03-22T01:09:25;5.63;;;3.25;;
81150;SDS011;70629;-26.026;27.976;2024-03-22T01:10:04;4.55;;;3.03;;
81150;SDS011;70629;-26.026;27.976;2024-03-22T01:11:20;4.25;;;2.70;;
81150;SDS011;70629;-26.026;27.976;2024-03-22T01:11:59;5.53;;;3.17;;
81150;SDS011;70629;-26.026;27.976;2024-03-22T01:12:37;6.20;;;2.92;;
81150;SDS011;70629;-26.026;27.976;2024-03-22T01:13:16;5.70;;;3.10;;
81150;SDS011;70629;-26.026;27.976;2024-03-22T01:13:55;6.05;;;2.92;;
81150;SDS011;70629;-26.026;27.976;2024-03-22T01:14:33;3.67;;;2.22;;
81150;SDS011;70629;-26.026;27.976;2024-03-22T01:15:11;3.85;;;2.40;;
81150;SDS011;70629;-26.026;27.976;2024-03-22T01:15:50;3.85;;;2.70;;
81150;SDS011;70629;-26.026;27.976;2024-03-22T01:16:29;5.15;;;2.45;;
81150;SDS011;70629;-26.026;27.976;2024-03-22T01:17:07;3.72;;;2.40;;
81150;SDS011;70629;-26.026;27.976;2024-03-22T01:17:45;7.15;;;2.78;;
81150;SDS011;70629;-26.026;27.976;2024-03-22T01:18:23;4.28;;;2.60;;
81150;SDS011;70629;-26.026;27.976;2024-03-22T01:19:02;9.88;;;2.92;;
81150;SDS011;70629;-26.026;27.976;2024-03-22T01:19:40;3.67;;;2.58;;
81150;SDS011;70629;-26.026;27.976;2024-03-22T01:20:18;3.88;;;2.35;;
81150;SDS011;70629;-26.026;27.976;2024-03-22T01:20:57;3.97;;;2.50;;
81150;SDS011;70629;-26.026;27.976;2024-03-22T01:21:35;3.92;;;2.40;;
81150;SDS011;70629;-26.026;27.976;2024-03-22T01:22:13;4.88;;;2.67;;
81150;SDS011;70629;-26.026;27.976;2024-03-22T01:22:51;4.90;;;2.20;;
81150;SDS011;70629;-26.026;27.976;2024-03-22T01:23:30;5.03;;;2.92;;
81150;SDS011;70629;-26.026;27.976;2024-03-22T01:24:08;6.22;;;2.50;;
81150;SDS011;70629;-26.026;27.976;2024-03-22T01:24:46;4.25;;;2.40;;
81150;SDS011;70629;-26.026;27.976;2024-03-22T01:25:24;5.78;;;2.70;;
81150;SDS011;70629;-26.026;27.976;2024-03-22T01:26:03;4.90;;;3.00;;
81150;SDS011;70629;-26.026;27.976;2024-03-22T01:26:41;5.18;;;2.45;;
81150;SDS011;70629;-26.026;27.976;2024-03-22T01:27:19;3.75;;;2.33;;
81150;SDS011;70629;-26.026;27.976;2024-03-22T01:27:58;4.10;;;2.60;;
81150;SDS011;70629;-26.026;27.976;2024-03-22T01:28:36;5.15;;;2.28;;
81150;SDS011;70629;-26.026;27.976;2024-03-22T01:29:14;4.88;;;2.25;;
81150;SDS011;70629;-26.026;27.976;2024-03-22T01:29:52;5.10;;;2.65;;
81150;SDS011;70629;-26.026;27.976;2024-03-22T01:30:31;4.47;;;2.17;;
81150;SDS011;70629;-26.026;27.976;2024-03-22T01:31:10;4.22;;;2.50;;
81150;SDS011;70629;-26.026;27.976;2024-03-22T01:31:49;5.30;;;2.70;;
81150;SDS011;70629;-26.026;27.976;2024-03-22T01:32:27;6.80;;;2.42;;
81150;SDS011;70629;-26.026;27.976;2024-03-22T01:33:05;4.45;;;2.40;;
81150;SDS011;70629;-26.026;27.976;2024-03-22T01:33:43;14.32;;;2.90;;
81150;SDS011;70629;-26.026;27.976;2024-03-22T01:34:22;5.70;;;2.53;;
81150;SDS011;70629;-26.026;27.976;2024-03-22T01:35:00;4.15;;;2.50;;
81150;SDS011;70629;-26.026;27.976;2024-03-22T01:35:38;6.25;;;2.42;;
81150;SDS011;70629;-26.026;27.976;2024-03-22T01:36:16;6.50;;;2.60;;
81150;SDS011;70629;-26.026;27.976;2024-03-22T01:36:55;5.15;;;2.70;;
81150;SDS011;70629;-26.026;27.976;2024-03-22T01:37:33;5.57;;;2.53;;
81150;SDS011;70629;-26.026;27.976;2024-03-22T01:38:11;4.63;;;2.38;;
81150;SDS011;70629;-26.026;27.976;2024-03-22T01:38:49;8.52;;;2.80;;
81150;SDS011;70629;-26.026;27.976;2024-03-22T01:39:27;4.60;;;2.22;;
81150;SDS011;70629;-26.026;27.976;2024-03-22T01:40:06;4.40;;;2.90;;
81150;SDS011;70629;-26.026;27.976;2024-03-22T01:40:45;4.55;;;2.53;;
81150;SDS011;70629;-26.026;27.976;2024-03-22T01:41:23;4.75;;;2.53;;
81150;SDS011;70629;-26.026;27.976;2024-03-22T01:42:02;5.93;;;2.80;;
81150;SDS011;70629;-26.026;27.976;2024-03-22T01:42:40;4.75;;;2.60;;
81150;SDS011;70629;-26.026;27.976;2024-03-22T01:43:18;4.55;;;2.65;;
81150;SDS011;70629;-26.026;27.976;2024-03-22T01:43:57;5.18;;;2.75;;
81150;SDS011;70629;-26.026;27.976;2024-03-22T01:44:36;5.15;;;3.00;;
81150;SDS011;70629;-26.026;27.976;2024-03-22T01:45:14;5.32;;;2.80;;
81150;SDS011;70629;-26.026;27.976;2024-03-22T01:45:52;5.70;;;2.70;;
81150;SDS011;70629;-26.026;27.976;2024-03-22T01:46:31;5.82;;;2.90;;
81150;SDS011;70629;-26.026;27.976;2024-03-22T01:47:09;4.20;;;2.33;;
81150;SDS011;70629;-26.026;27.976;2024-03-22T01:47:48;4.82;;;2.95;;
81150;SDS011;70629;-26.026;27.976;2024-03-22T01:48:26;4.28;;;2.60;;
81150;SDS011;70629;-26.026;27.976;2024-03-22T01:49:05;5.90;;;2.85;;
81150;SDS011;70629;-26.026;27.976;2024-03-22T01:49:44;4.78;;;2.83;;
81150;SDS011;70629;-26.026;27.976;2024-03-22T01:50:22;4.97;;;2.85;;
81150;SDS011;70629;-26.026;27.976;2024-03-22T01:51:01;5.38;;;2.97;;
81150;SDS011;70629;-26.026;27.976;2024-03-22T01:51:40;5.50;;;3.28;;
81150;SDS011;70629;-26.026;27.976;2024-03-22T01:52:18;5.93;;;2.70;;
81150;SDS011;70629;-26.026;27.976;2024-03-22T01:52:56;5.85;;;2.70;;
81150;SDS011;70629;-26.026;27.976;2024-03-22T01:53:35;5.70;;;3.00;;
81150;SDS011;70629;-26.026;27.976;2024-03-22T01:54:15;5.38;;;3.05;;
81150;SDS011;70629;-26.026;27.976;2024-03-22T01:54:54;4.78;;;2.70;;
81150;SDS011;70629;-26.026;27.976;2024-03-22T01:55:32;5.50;;;3.25;;
81150;SDS011;70629;-26.026;27.976;2024-03-22T01:56:11;5.40;;;2.83;;
81150;SDS011;70629;-26.026;27.976;2024-03-22T01:56:49;5.03;;;3.20;;
81150;SDS011;70629;-26.026;27.976;2024-03-22T01:57:27;5.25;;;2.90;;
81150;SDS011;70629;-26.026;27.976;2024-03-22T01:58:06;4.82;;;2.92;;
81150;SDS011;70629;-26.026;27.976;2024-03-22T01:58:45;5.47;;;3.15;;
81150;SDS011;70629;-26.026;27.976;2024-03-22T02:00:01;4.78;;;2.75;;
81150;SDS011;70629;-26.026;27.976;2024-03-22T02:00:50;6.43;;;2.72;;
81150;SDS011;70629;-26.026;27.976;2024-03-22T02:01:28;5.07;;;2.65;;
81150;SDS011;70629;-26.026;27.976;2024-03-22T02:02:06;5.93;;;3.00;;
81150;SDS011;70629;-26.026;27.976;2024-03-22T02:02:45;6.10;;;3.70;;
81150;SDS011;70629;-26.026;27.976;2024-03-22T02:03:23;7.32;;;3.85;;
81150;SDS011;70629;-26.026;27.976;2024-03-22T02:04:02;5.70;;;3.97;;
81150;SDS011;70629;-26.026;27.976;2024-03-22T02:04:40;5.03;;;3.10;;
81150;SDS011;70629;-26.026;27.976;2024-03-22T02:05:18;7.03;;;3.70;;
81150;SDS011;70629;-26.026;27.976;2024-03-22T02:05:57;5.30;;;3.25;;
81150;SDS011;70629;-26.026;27.976;2024-03-22T02:06:35;5.40;;;3.40;;
81150;SDS011;70629;-26.026;27.976;2024-03-22T02:07:13;7.65;;;4.00;;
81150;SDS011;70629;-26.026;27.976;2024-03-22T02:07:52;6.70;;;4.15;;
81150;SDS011;70629;-26.026;27.976;2024-03-22T02:08:30;6.15;;;3.80;;
81150;SDS011;70629;-26.026;27.976;2024-03-22T02:09:08;7.35;;;3.90;;
81150;SDS011;70629;-26.026;27.976;2024-03-22T02:09:47;6.78;;;3.85;;
81150;SDS011;70629;-26.026;27.976;2024-03-22T02:10:25;7.03;;;3.88;;
81150;SDS011;70629;-26.026;27.976;2024-03-22T02:11:04;8.68;;;4.40;;
81150;SDS011;70629;-26.026;27.976;2024-03-22T02:11:42;7.80;;;4.28;;
81150;SDS011;70629;-26.026;27.976;2024-03-22T02:12:20;8.40;;;4.40;;
81150;SDS011;70629;-26.026;27.976;2024-03-22T02:12:59;6.93;;;4.28;;
81150;SDS011;70629;-26.026;27.976;2024-03-22T02:13:37;7.70;;;4.90;;
81150;SDS011;70629;-26.026;27.976;2024-03-22T02:14:15;7.20;;;4.55;;
81150;SDS011;70629;-26.026;27.976;2024-03-22T02:14:53;9.20;;;4.78;;
81150;SDS011;70629;-26.026;27.976;2024-03-22T02:15:35;8.90;;;4.43;;
81150;SDS011;70629;-26.026;27.976;2024-03-22T02:16:15;7.15;;;4.75;;
81150;SDS011;70629;-26.026;27.976;2024-03-22T02:16:53;7.75;;;4.10;;
81150;SDS011;70629;-26.026;27.976;2024-03-22T02:17:31;7.38;;;4.97;;
81150;SDS011;70629;-26.026;27.976;2024-03-22T02:18:10;7.65;;;4.68;;
81150;SDS011;70629;-26.026;27.976;2024-03-22T02:18:48;10.20;;;4.90;;
81150;SDS011;70629;-26.026;27.976;2024-03-22T02:19:27;8.60;;;5.03;;
81150;SDS011;70629;-26.026;27.976;2024-03-22T02:20:05;7.32;;;4.20;;
81150;SDS011;70629;-26.026;27.976;2024-03-22T02:20:45;8.38;;;4.55;;
81150;SDS011;70629;-26.026;27.976;2024-03-22T02:21:23;7.13;;;4.70;;
81150;SDS011;70629;-26.026;27.976;2024-03-22T02:22:01;7.85;;;4.68;;
81150;SDS011;70629;-26.026;27.976;2024-03-22T02:22:39;9.73;;;5.10;;
81150;SDS011;70629;-26.026;27.976;2024-03-22T02:23:21;8.55;;;4.57;;
81150;SDS011;70629;-26.026;27.976;2024-03-22T02:24:12;7.82;;;4.90;;
81150;SDS011;70629;-26.026;27.976;2024-03-22T02:24:51;6.70;;;4.75;;
81150;SDS011;70629;-26.026;27.976;2024-03-22T02:25:29;8.23;;;5.57;;
81150;SDS011;70629;-26.026;27.976;2024-03-22T02:26:07;7.78;;;5.18;;
81150;SDS011;70629;-26.026;27.976;2024-03-22T02:26:45;10.55;;;6.40;;
81150;SDS011;70629;-26.026;27.976;2024-03-22T02:27:24;8.32;;;5.30;;
81150;SDS011;70629;-26.026;27.976;2024-03-22T02:28:03;8.23;;;5.18;;
81150;SDS011;70629;-26.026;27.976;2024-03-22T02:29:19;8.40;;;4.85;;
81150;SDS011;70629;-26.026;27.976;2024-03-22T02:29:57;8.70;;;5.78;;
81150;SDS011;70629;-26.026;27.976;2024-03-22T02:30:36;7.22;;;4.88;;
81150;SDS011;70629;-26.026;27.976;2024-03-22T02:31:14;10.43;;;5.82;;
81150;SDS011;70629;-26.026;27.976;2024-03-22T02:31:52;9.68;;;5.10;;
81150;SDS011;70629;-26.026;27.976;2024-03-22T02:32:31;9.07;;;5.68;;
81150;SDS011;70629;-26.026;27.976;2024-03-22T02:33:09;8.55;;;6.05;;
81150;SDS011;70629;-26.026;27.976;2024-03-22T02:33:47;8.48;;;5.35;;
81150;SDS011;70629;-26.026;27.976;2024-03-22T02:34:25;10.45;;;5.40;;
81150;SDS011;70629;-26.026;27.976;2024-03-22T02:35:03;7.95;;;6.32;;
81150;SDS011;70629;-26.026;27.976;2024-03-22T02:35:42;9.23;;;5.93;;
81150;SDS011;70629;-26.026;27.976;2024-03-22T02:36:58;8.95;;;6.18;;
81150;SDS011;70629;-26.026;27.976;2024-03-22T02:37:36;11.45;;;5.78;;
81150;SDS011;70629;-26.026;27.976;2024-03-22T02:38:15;8.70;;;6.00;;
81150;SDS011;70629;-26.026;27.976;2024-03-22T02:38:54;9.02;;;6.00;;
81150;SDS011;70629;-26.026;27.976;2024-03-22T02:39:32;8.23;;;5.40;;
81150;SDS011;70629;-26.026;27.976;2024-03-22T02:40:11;9.82;;;5.10;;
81150;SDS011;70629;-26.026;27.976;2024-03-22T02:40:51;9.13;;;5.43;;
81150;SDS011;70629;-26.026;27.976;2024-03-22T02:41:30;9.10;;;5.20;;
81150;SDS011;70629;-26.026;27.976;2024-03-22T02:42:08;7.93;;;5.60;;
81150;SDS011;70629;-26.026;27.976;2024-03-22T02:42:46;9.75;;;5.15;;
81150;SDS011;70629;-26.026;27.976;2024-03-22T02:43:24;9.35;;;6.03;;
81150;SDS011;70629;-26.026;27.976;2024-03-22T02:44:03;8.18;;;5.57;;
81150;SDS011;70629;-26.026;27.976;2024-03-22T02:44:41;9.75;;;5.90;;
81150;SDS011;70629;-26.026;27.976;2024-03-22T02:45:20;10.63;;;6.10;;
81150;SDS011;70629;-26.026;27.976;2024-03-22T02:45:58;8.27;;;5.40;;
81150;SDS011;70629;-26.026;27.976;2024-03-22T02:46:37;8.60;;;5.78;;
81150;SDS011;70629;-26.026;27.976;2024-03-22T02:47:15;9.27;;;6.20;;
81150;SDS011;70629;-26.026;27.976;2024-03-22T02:47:53;8.85;;;5.82;;
81150;SDS011;70629;-26.026;27.976;2024-03-22T02:48:31;11.57;;;5.57;;
81150;SDS011;70629;-26.026;27.976;2024-03-22T02:49:10;8.50;;;5.10;;
81150;SDS011;70629;-26.026;27.976;2024-03-22T02:49:48;8.95;;;5.95;;
81150;SDS011;70629;-26.026;27.976;2024-03-22T02:50:26;8.35;;;5.50;;
81150;SDS011;70629;-26.026;27.976;2024-03-22T02:51:04;10.77;;;5.85;;
81150;SDS011;70629;-26.026;27.976;2024-03-22T02:51:43;10.32;;;5.97;;
81150;SDS011;70629;-26.026;27.976;2024-03-22T02:52:21;9.30;;;5.82;;
81150;SDS011;70629;-26.026;27.976;2024-03-22T02:52:59;7.70;;;5.53;;
81150;SDS011;70629;-26.026;27.976;2024-03-22T02:53:37;6.70;;;4.95;;
81150;SDS011;70629;-26.026;27.976;2024-03-22T02:54:16;9.40;;;6.95;;
81150;SDS011;70629;-26.026;27.976;2024-03-22T02:54:54;9.05;;;6.10;;
81150;SDS011;70629;-26.026;27.976;2024-03-22T02:55:39;10.13;;;6.45;;
81150;SDS011;70629;-26.026;27.976;2024-03-22T02:56:17;8.77;;;6.28;;
81150;SDS011;70629;-26.026;27.976;2024-03-22T02:56:56;7.55;;;6.03;;
81150;SDS011;70629;-26.026;27.976;2024-03-22T02:57:34;9.38;;;6.00;;
81150;SDS011;70629;-26.026;27.976;2024-03-22T02:58:12;11.50;;;6.63;;
81150;SDS011;70629;-26.026;27.976;2024-03-22T02:58:50;8.23;;;5.72;;
81150;SDS011;70629;-26.026;27.976;2024-03-22T02:59:29;10.23;;;6.10;;
81150;SDS011;70629;-26.026;27.976;2024-03-22T03:00:07;9.48;;;6.07;;
81150;SDS011;70629;-26.026;27.976;2024-03-22T03:01:23;9.63;;;6.30;;
81150;SDS011;70629;-26.026;27.976;2024-03-22T03:02:02;11.32;;;7.22;;
81150;SDS011;70629;-26.026;27.976;2024-03-22T03:02:40;8.95;;;5.70;;
81150;SDS011;70629;-26.026;27.976;2024-03-22T03:03:18;10.65;;;7.72;;
81150;SDS011;70629;-26.026;27.976;2024-03-22T03:03:56;11.02;;;6.93;;
81150;SDS011;70629;-26.026;27.976;2024-03-22T03:04:34;11.80;;;7.68;;
81150;SDS011;70629;-26.026;27.976;2024-03-22T03:05:12;9.75;;;6.97;;
81150;SDS011;70629;-26.026;27.976;2024-03-22T03:05:51;12.68;;;8.18;;
81150;SDS011;70629;-26.026;27.976;2024-03-22T03:06:30;11.63;;;8.00;;
81150;SDS011;70629;-26.026;27.976;2024-03-22T03:07:09;14.55;;;9.65;;
81150;SDS011;70629;-26.026;27.976;2024-03-22T03:07:48;13.88;;;9.27;;
81150;SDS011;70629;-26.026;27.976;2024-03-22T03:08:26;12.73;;;9.90;;
81150;SDS011;70629;-26.026;27.976;2024-03-22T03:09:04;13.88;;;9.73;;
81150;SDS011;70629;-26.026;27.976;2024-03-22T03:09:45;14.65;;;9.73;;
81150;SDS011;70629;-26.026;27.976;2024-03-22T03:10:23;12.98;;;9.35;;
81150;SDS011;70629;-26.026;27.976;2024-03-22T03:11:01;14.82;;;8.63;;
81150;SDS011;70629;-26.026;27.976;2024-03-22T03:11:40;14.25;;;9.98;;
81150;SDS011;70629;-26.026;27.976;2024-03-22T03:12:18;13.20;;;9.23;;
81150;SDS011;70629;-26.026;27.976;2024-03-22T03:12:56;13.68;;;9.73;;
81150;SDS011;70629;-26.026;27.976;2024-03-22T03:13:34;14.65;;;9.90;;
81150;SDS011;70629;-26.026;27.976;2024-03-22T03:14:13;16.77;;;11.75;;
81150;SDS011;70629;-26.026;27.976;2024-03-22T03:14:51;14.65;;;10.18;;
81150;SDS011;70629;-26.026;27.976;2024-03-22T03:15:29;13.98;;;10.20;;
81150;SDS011;70629;-26.026;27.976;2024-03-22T03:16:07;15.25;;;10.30;;
81150;SDS011;70629;-26.026;27.976;2024-03-22T03:16:47;16.05;;;10.68;;
81150;SDS011;70629;-26.026;27.976;2024-03-22T03:17:25;13.85;;;10.57;;
81150;SDS011;70629;-26.026;27.976;2024-03-22T03:18:03;13.30;;;10.02;;
81150;SDS011;70629;-26.026;27.976;2024-03-22T03:18:42;13.68;;;9.32;;
81150;SDS011;70629;-26.026;27.976;2024-03-22T03:19:20;14.68;;;9.75;;
81150;SDS011;70629;-26.026;27.976;2024-03-22T03:19:58;13.05;;;9.57;;
81150;SDS011;70629;-26.026;27.976;2024-03-22T03:20:36;15.25;;;9.90;;
81150;SDS011;70629;-26.026;27.976;2024-03-22T03:21:15;13.13;;;9.43;;
81150;SDS011;70629;-26.026;27.976;2024-03-22T03:21:53;14.38;;;8.88;;
81150;SDS011;70629;-26.026;27.976;2024-03-22T03:22:31;13.85;;;9.68;;
81150;SDS011;70629;-26.026;27.976;2024-03-22T03:23:09;12.32;;;8.52;;
81150;SDS011;70629;-26.026;27.976;2024-03-22T03:23:47;11.95;;;8.00;;
81150;SDS011;70629;-26.026;27.976;2024-03-22T03:24:25;10.88;;;8.27;;
81150;SDS011;70629;-26.026;27.976;2024-03-22T03:25:04;15.18;;;8.85;;
81150;SDS011;70629;-26.026;27.976;2024-03-22T03:25:43;11.88;;;8.75;;
81150;SDS011;70629;-26.026;27.976;2024-03-22T03:26:21;10.05;;;7.28;;
81150;SDS011;70629;-26.026;27.976;2024-03-22T03:26:59;10.60;;;7.35;;
81150;SDS011;70629;-26.026;27.976;2024-03-22T03:28:15;12.25;;;7.20;;
81150;SDS011;70629;-26.026;27.976;2024-03-22T03:28:55;10.50;;;7.13;;
81150;SDS011;70629;-26.026;27.976;2024-03-22T03:29:33;9.45;;;6.80;;
81150;SDS011;70629;-26.026;27.976;2024-03-22T03:30:11;10.70;;;7.60;;
81150;SDS011;70629;-26.026;27.976;2024-03-22T03:30:50;10.40;;;7.78;;
81150;SDS011;70629;-26.026;27.976;2024-03-22T03:31:28;12.95;;;7.45;;
81150;SDS011;70629;-26.026;27.976;2024-03-22T03:32:06;10.10;;;6.75;;
81150;SDS011;70629;-26.026;27.976;2024-03-22T03:32:44;9.65;;;7.25;;
81150;SDS011;70629;-26.026;27.976;2024-03-22T03:33:23;11.07;;;7.72;;
81150;SDS011;70629;-26.026;27.976;2024-03-22T03:34:01;10.80;;;7.25;;
81150;SDS011;70629;-26.026;27.976;2024-03-22T03:34:39;11.38;;;7.22;;
81150;SDS011;70629;-26.026;27.976;2024-03-22T03:35:17;10.15;;;6.95;;
81150;SDS011;70629;-26.026;27.976;2024-03-22T03:35:56;9.88;;;7.20;;
81150;SDS011;70629;-26.026;27.976;2024-03-22T03:36:34;10.65;;;6.97;;
81150;SDS011;70629;-26.026;27.976;2024-03-22T03:37:14;9.95;;;7.32;;
81150;SDS011;70629;-26.026;27.976;2024-03-22T03:37:52;10.70;;;7.63;;
81150;SDS011;70629;-26.026;27.976;2024-03-22T03:38:30;10.50;;;6.30;;
81150;SDS011;70629;-26.026;27.976;2024-03-22T03:39:09;10.90;;;6.85;;
81150;SDS011;70629;-26.026;27.976;2024-03-22T03:39:47;10.15;;;7.07;;
81150;SDS011;70629;-26.026;27.976;2024-03-22T03:40:25;11.70;;;7.22;;
81150;SDS011;70629;-26.026;27.976;2024-03-22T03:41:04;10.90;;;7.40;;
81150;SDS011;70629;-26.026;27.976;2024-03-22T03:41:43;10.20;;;7.72;;
81150;SDS011;70629;-26.026;27.976;2024-03-22T03:42:21;11.35;;;7.07;;
81150;SDS011;70629;-26.026;27.976;2024-03-22T03:43:00;9.40;;;6.95;;
81150;SDS011;70629;-26.026;27.976;2024-03-22T03:43:38;13.50;;;8.82;;
81150;SDS011;70629;-26.026;27.976;2024-03-22T03:44:16;10.27;;;7.25;;
81150;SDS011;70629;-26.026;27.976;2024-03-22T03:44:54;9.93;;;8.00;;
81150;SDS011;70629;-26.026;27.976;2024-03-22T03:45:35;10.88;;;7.68;;
81150;SDS011;70629;-26.026;27.976;2024-03-22T03:46:14;11.65;;;7.93;;
81150;SDS011;70629;-26.026;27.976;2024-03-22T03:46:52;12.82;;;8.07;;
81150;SDS011;70629;-26.026;27.976;2024-03-22T03:47:30;13.57;;;8.40;;
81150;SDS011;70629;-26.026;27.976;2024-03-22T03:48:09;14.02;;;8.73;;
81150;SDS011;70629;-26.026;27.976;2024-03-22T03:48:47;12.73;;;8.55;;
81150;SDS011;70629;-26.026;27.976;2024-03-22T03:49:25;13.55;;;8.77;;
81150;SDS011;70629;-26.026;27.976;2024-03-22T03:50:03;11.57;;;9.05;;
81150;SDS011;70629;-26.026;27.976;2024-03-22T03:51:28;15.32;;;10.70;;
81150;SDS011;70629;-26.026;27.976;2024-03-22T03:52:06;13.00;;;9.40;;